sensor_id;sensor_type;location;lat;lon;timestamp;P1;durP1;ratioP1;P2;durP2;ratioP2
75456;SDS011;64036;48.266;14.192;2023-02-23T00:00:39;8.00;;;4.80;;
75456;SDS011;64036;48.266;14.192;2023-02-23T00:03:17;7.50;;;4.20;;
75456;SDS011;64036;48.266;14.192;2023-02-23T00:05:53;7.60;;;4.40;;
75456;SDS011;64036;48.266;14.192;2023-02-23T00:08:37;7.10;;;4.00;;
75456;SDS011;64036;48.266;14.192;2023-02-23T00:11:10;7.30;;;4.30;;
75456;SDS011;64036;48.266;14.192;2023-02-23T00:13:43;6.90;;;3.80;;
75456;SDS011;64036;48.266;14.192;2023-02-23T00:16:16;7.70;;;4.10;;
75456;SDS011;64036;48.266;14.192;2023-02-23T00:18:47;7.60;;;4.30;;
75456;SDS011;64036;48.266;14.192;2023-02-23T00:21:33;7.30;;;4.40;;
75456;SDS011;64036;48.266;14.192;2023-02-23T00:24:04;8.10;;;4.80;;
75456;SDS011;64036;48.266;14.192;2023-02-23T00:26:36;8.90;;;4.70;;
75456;SDS011;64036;48.266;14.192;2023-02-23T00:29:06;8.80;;;4.60;;
75456;SDS011;64036;48.266;14.192;2023-02-23T00:31:36;8.20;;;4.60;;
75456;SDS011;64036;48.266;14.192;2023-02-23T00:34:05;6.40;;;3.80;;
75456;SDS011;64036;48.266;14.192;2023-02-23T00:36:34;8.80;;;5.00;;
75456;SDS011;64036;48.266;14.192;2023-02-23T00:39:06;7.30;;;3.90;;
75456;SDS011;64036;48.266;14.192;2023-02-23T00:41:54;5.90;;;3.90;;
75456;SDS011;64036;48.266;14.192;2023-02-23T00:44:31;8.00;;;4.00;;
75456;SDS011;64036;48.266;14.192;2023-02-23T00:47:01;7.80;;;4.30;;
75456;SDS011;64036;48.266;14.192;2023-02-23T00:49:28;7.10;;;4.40;;
75456;SDS011;64036;48.266;14.192;2023-02-23T00:51:53;7.10;;;3.90;;
75456;SDS011;64036;48.266;14.192;2023-02-23T00:54:23;9.00;;;4.50;;
75456;SDS011;64036;48.266;14.192;2023-02-23T00:56:50;8.30;;;4.50;;
75456;SDS011;64036;48.266;14.192;2023-02-23T00:59:17;8.10;;;4.50;;
75456;SDS011;64036;48.266;14.192;2023-02-23T01:01:43;7.90;;;4.40;;
75456;SDS011;64036;48.266;14.192;2023-02-23T01:04:12;7.10;;;4.10;;
75456;SDS011;64036;48.266;14.192;2023-02-23T01:06:39;7.70;;;4.60;;
75456;SDS011;64036;48.266;14.192;2023-02-23T01:09:16;8.20;;;4.60;;
75456;SDS011;64036;48.266;14.192;2023-02-23T01:12:14;8.80;;;4.80;;
75456;SDS011;64036;48.266;14.192;2023-02-23T01:14:45;8.30;;;4.80;;
75456;SDS011;64036;48.266;14.192;2023-02-23T01:17:23;8.60;;;3.90;;
75456;SDS011;64036;48.266;14.192;2023-02-23T01:19:56;6.70;;;3.60;;
75456;SDS011;64036;48.266;14.192;2023-02-23T01:22:41;7.70;;;4.40;;
75456;SDS011;64036;48.266;14.192;2023-02-23T01:25:28;8.80;;;4.70;;
75456;SDS011;64036;48.266;14.192;2023-02-23T01:28:01;8.40;;;4.20;;
75456;SDS011;64036;48.266;14.192;2023-02-23T01:30:47;7.30;;;4.40;;
75456;SDS011;64036;48.266;14.192;2023-02-23T01:33:13;7.90;;;4.50;;
75456;SDS011;64036;48.266;14.192;2023-02-23T01:35:39;7.80;;;4.60;;
75456;SDS011;64036;48.266;14.192;2023-02-23T01:38:19;8.30;;;5.00;;
75456;SDS011;64036;48.266;14.192;2023-02-23T01:40:58;8.50;;;4.90;;
75456;SDS011;64036;48.266;14.192;2023-02-23T01:46:34;10.10;;;5.20;;
75456;SDS011;64036;48.266;14.192;2023-02-23T01:49:44;8.60;;;5.20;;
75456;SDS011;64036;48.266;14.192;2023-02-23T01:52:20;8.90;;;5.20;;
75456;SDS011;64036;48.266;14.192;2023-02-23T01:54:50;9.30;;;5.50;;
75456;SDS011;64036;48.266;14.192;2023-02-23T01:57:21;9.30;;;6.40;;
75456;SDS011;64036;48.266;14.192;2023-02-23T01:59:52;9.10;;;5.50;;
75456;SDS011;64036;48.266;14.192;2023-02-23T02:02:41;8.70;;;5.20;;
75456;SDS011;64036;48.266;14.192;2023-02-23T02:07:56;9.10;;;5.50;;
75456;SDS011;64036;48.266;14.192;2023-02-23T02:10:51;8.80;;;5.30;;
75456;SDS011;64036;48.266;14.192;2023-02-23T02:13:34;9.70;;;6.00;;
75456;SDS011;64036;48.266;14.192;2023-02-23T02:16:16;9.00;;;5.20;;
75456;SDS011;64036;48.266;14.192;2023-02-23T02:25:55;9.10;;;5.20;;
75456;SDS011;64036;48.266;14.192;2023-02-23T02:43:39;11.40;;;5.50;;
75456;SDS011;64036;48.266;14.192;2023-02-23T02:52:38;9.90;;;5.80;;
75456;SDS011;64036;48.266;14.192;2023-02-23T02:55:29;11.60;;;6.20;;
75456;SDS011;64036;48.266;14.192;2023-02-23T02:58:14;10.50;;;5.70;;
75456;SDS011;64036;48.266;14.192;2023-02-23T03:00:46;12.00;;;5.90;;
75456;SDS011;64036;48.266;14.192;2023-02-23T03:13:52;11.40;;;5.70;;
75456;SDS011;64036;48.266;14.192;2023-02-23T03:20:03;8.80;;;5.50;;
75456;SDS011;64036;48.266;14.192;2023-02-23T03:23:38;12.50;;;6.90;;
75456;SDS011;64036;48.266;14.192;2023-02-23T03:33:17;12.10;;;6.70;;
75456;SDS011;64036;48.266;14.192;2023-02-23T03:39:41;11.70;;;6.80;;
75456;SDS011;64036;48.266;14.192;2023-02-23T03:45:28;11.00;;;6.10;;
75456;SDS011;64036;48.266;14.192;2023-02-23T03:48:16;11.60;;;7.10;;
75456;SDS011;64036;48.266;14.192;2023-02-23T03:54:24;12.70;;;7.50;;
75456;SDS011;64036;48.266;14.192;2023-02-23T03:57:33;14.40;;;7.50;;
75456;SDS011;64036;48.266;14.192;2023-02-23T04:00:31;11.60;;;7.20;;
75456;SDS011;64036;48.266;14.192;2023-02-23T04:03:18;10.50;;;6.70;;
75456;SDS011;64036;48.266;14.192;2023-02-23T04:06:12;12.40;;;7.20;;
75456;SDS011;64036;48.266;14.192;2023-02-23T04:09:13;12.00;;;7.10;;
75456;SDS011;64036;48.266;14.192;2023-02-23T04:12:30;10.80;;;6.30;;
75456;SDS011;64036;48.266;14.192;2023-02-23T04:15:32;12.40;;;7.30;;
75456;SDS011;64036;48.266;14.192;2023-02-23T04:18:06;14.40;;;7.90;;
75456;SDS011;64036;48.266;14.192;2023-02-23T04:20:37;13.00;;;6.70;;
75456;SDS011;64036;48.266;14.192;2023-02-23T04:23:12;11.60;;;6.80;;
75456;SDS011;64036;48.266;14.192;2023-02-23T04:26:03;14.70;;;7.80;;
75456;SDS011;64036;48.266;14.192;2023-02-23T04:28:58;12.60;;;7.40;;
75456;SDS011;64036;48.266;14.192;2023-02-23T04:31:39;14.00;;;7.40;;
75456;SDS011;64036;48.266;14.192;2023-02-23T04:34:06;13.60;;;7.60;;
75456;SDS011;64036;48.266;14.192;2023-02-23T04:36:32;13.40;;;8.20;;
75456;SDS011;64036;48.266;14.192;2023-02-23T04:39:03;11.10;;;6.70;;
75456;SDS011;64036;48.266;14.192;2023-02-23T04:41:29;13.80;;;8.30;;
75456;SDS011;64036;48.266;14.192;2023-02-23T04:43:55;13.30;;;8.10;;
75456;SDS011;64036;48.266;14.192;2023-02-23T04:46:21;13.70;;;8.10;;
75456;SDS011;64036;48.266;14.192;2023-02-23T04:49:09;12.80;;;7.30;;
75456;SDS011;64036;48.266;14.192;2023-02-23T04:51:37;11.40;;;6.70;;
75456;SDS011;64036;48.266;14.192;2023-02-23T04:54:04;12.40;;;7.10;;
75456;SDS011;64036;48.266;14.192;2023-02-23T04:56:31;12.80;;;8.30;;
75456;SDS011;64036;48.266;14.192;2023-02-23T04:59:04;14.30;;;9.30;;
75456;SDS011;64036;48.266;14.192;2023-02-23T05:01:35;15.40;;;9.90;;
75456;SDS011;64036;48.266;14.192;2023-02-23T05:04:11;14.00;;;7.60;;
75456;SDS011;64036;48.266;14.192;2023-02-23T05:06:37;14.70;;;7.70;;
75456;SDS011;64036;48.266;14.192;2023-02-23T05:09:04;13.20;;;7.80;;
75456;SDS011;64036;48.266;14.192;2023-02-23T05:11:32;14.30;;;8.10;;
75456;SDS011;64036;48.266;14.192;2023-02-23T05:13:58;11.80;;;7.80;;
75456;SDS011;64036;48.266;14.192;2023-02-23T05:16:23;11.40;;;6.90;;
75456;SDS011;64036;48.266;14.192;2023-02-23T05:18:52;11.00;;;6.20;;
75456;SDS011;64036;48.266;14.192;2023-02-23T05:21:20;11.30;;;6.80;;
75456;SDS011;64036;48.266;14.192;2023-02-23T05:23:46;12.20;;;6.80;;
75456;SDS011;64036;48.266;14.192;2023-02-23T05:26:12;11.30;;;6.90;;
75456;SDS011;64036;48.266;14.192;2023-02-23T05:28:42;11.80;;;6.20;;
75456;SDS011;64036;48.266;14.192;2023-02-23T05:31:08;9.50;;;6.00;;
75456;SDS011;64036;48.266;14.192;2023-02-23T05:33:35;8.90;;;5.80;;
75456;SDS011;64036;48.266;14.192;2023-02-23T05:36:11;9.80;;;5.90;;
75456;SDS011;64036;48.266;14.192;2023-02-23T05:38:41;8.70;;;5.60;;
75456;SDS011;64036;48.266;14.192;2023-02-23T05:41:08;10.40;;;6.50;;
75456;SDS011;64036;48.266;14.192;2023-02-23T05:43:36;11.80;;;7.10;;
75456;SDS011;64036;48.266;14.192;2023-02-23T05:46:20;11.20;;;6.40;;
75456;SDS011;64036;48.266;14.192;2023-02-23T05:48:59;11.30;;;6.50;;
75456;SDS011;64036;48.266;14.192;2023-02-23T05:51:30;12.30;;;6.80;;
75456;SDS011;64036;48.266;14.192;2023-02-23T05:53:58;10.50;;;6.40;;
75456;SDS011;64036;48.266;14.192;2023-02-23T05:56:33;11.20;;;6.40;;
75456;SDS011;64036;48.266;14.192;2023-02-23T05:58:59;10.30;;;6.30;;
75456;SDS011;64036;48.266;14.192;2023-02-23T06:01:31;10.60;;;6.50;;
75456;SDS011;64036;48.266;14.192;2023-02-23T06:04:12;10.30;;;6.00;;
75456;SDS011;64036;48.266;14.192;2023-02-23T06:06:50;11.40;;;6.50;;
75456;SDS011;64036;48.266;14.192;2023-02-23T06:09:30;10.40;;;5.90;;
75456;SDS011;64036;48.266;14.192;2023-02-23T06:12:20;11.50;;;6.90;;
75456;SDS011;64036;48.266;14.192;2023-02-23T06:15:05;10.20;;;6.20;;
75456;SDS011;64036;48.266;14.192;2023-02-23T06:17:34;11.10;;;6.60;;
75456;SDS011;64036;48.266;14.192;2023-02-23T06:20:08;11.30;;;6.30;;
75456;SDS011;64036;48.266;14.192;2023-02-23T06:22:49;10.60;;;6.20;;
75456;SDS011;64036;48.266;14.192;2023-02-23T06:25:24;10.60;;;6.30;;
75456;SDS011;64036;48.266;14.192;2023-02-23T06:27:50;11.70;;;7.00;;
75456;SDS011;64036;48.266;14.192;2023-02-23T06:30:22;10.60;;;6.60;;
75456;SDS011;64036;48.266;14.192;2023-02-23T06:32:48;12.10;;;7.50;;
75456;SDS011;64036;48.266;14.192;2023-02-23T06:35:16;10.70;;;7.00;;
75456;SDS011;64036;48.266;14.192;2023-02-23T06:37:42;11.50;;;7.30;;
75456;SDS011;64036;48.266;14.192;2023-02-23T06:40:08;10.50;;;6.40;;
75456;SDS011;64036;48.266;14.192;2023-02-23T06:42:34;10.50;;;6.40;;
75456;SDS011;64036;48.266;14.192;2023-02-23T06:45:04;11.90;;;7.20;;
75456;SDS011;64036;48.266;14.192;2023-02-23T06:47:30;10.70;;;7.20;;
75456;SDS011;64036;48.266;14.192;2023-02-23T06:49:59;12.10;;;7.50;;
75456;SDS011;64036;48.266;14.192;2023-02-23T06:52:28;11.40;;;7.50;;
75456;SDS011;64036;48.266;14.192;2023-02-23T06:54:54;11.70;;;7.10;;
75456;SDS011;64036;48.266;14.192;2023-02-23T06:57:40;10.60;;;7.00;;
75456;SDS011;64036;48.266;14.192;2023-02-23T07:00:07;11.10;;;7.10;;
75456;SDS011;64036;48.266;14.192;2023-02-23T07:02:33;11.70;;;7.40;;
75456;SDS011;64036;48.266;14.192;2023-02-23T07:05:03;12.00;;;6.70;;
75456;SDS011;64036;48.266;14.192;2023-02-23T07:07:29;10.80;;;6.80;;
75456;SDS011;64036;48.266;14.192;2023-02-23T07:09:56;12.80;;;6.90;;
75456;SDS011;64036;48.266;14.192;2023-02-23T07:12:25;11.40;;;6.90;;
75456;SDS011;64036;48.266;14.192;2023-02-23T07:14:51;11.40;;;7.20;;
75456;SDS011;64036;48.266;14.192;2023-02-23T07:17:26;11.50;;;7.40;;
75456;SDS011;64036;48.266;14.192;2023-02-23T07:19:52;12.30;;;7.00;;
75456;SDS011;64036;48.266;14.192;2023-02-23T07:22:18;14.00;;;7.30;;
75456;SDS011;64036;48.266;14.192;2023-02-23T07:24:46;13.30;;;6.80;;
75456;SDS011;64036;48.266;14.192;2023-02-23T07:27:12;10.50;;;6.50;;
75456;SDS011;64036;48.266;14.192;2023-02-23T07:29:38;13.20;;;7.70;;
75456;SDS011;64036;48.266;14.192;2023-02-23T07:32:06;13.10;;;8.60;;
75456;SDS011;64036;48.266;14.192;2023-02-23T07:34:37;11.70;;;7.30;;
75456;SDS011;64036;48.266;14.192;2023-02-23T07:37:12;13.20;;;7.20;;
75456;SDS011;64036;48.266;14.192;2023-02-23T07:39:38;12.00;;;7.00;;
75456;SDS011;64036;48.266;14.192;2023-02-23T07:42:10;11.90;;;7.00;;
75456;SDS011;64036;48.266;14.192;2023-02-23T07:44:37;12.50;;;7.50;;
75456;SDS011;64036;48.266;14.192;2023-02-23T07:47:15;11.30;;;7.00;;
75456;SDS011;64036;48.266;14.192;2023-02-23T07:49:41;14.10;;;7.90;;
75456;SDS011;64036;48.266;14.192;2023-02-23T07:52:10;12.70;;;7.90;;
75456;SDS011;64036;48.266;14.192;2023-02-23T07:54:36;13.90;;;8.70;;
75456;SDS011;64036;48.266;14.192;2023-02-23T07:57:02;13.70;;;8.00;;
75456;SDS011;64036;48.266;14.192;2023-02-23T07:59:28;10.60;;;6.50;;
75456;SDS011;64036;48.266;14.192;2023-02-23T08:01:54;11.60;;;7.40;;
75456;SDS011;64036;48.266;14.192;2023-02-23T08:04:20;13.30;;;8.60;;
75456;SDS011;64036;48.266;14.192;2023-02-23T08:06:46;13.10;;;8.80;;
75456;SDS011;64036;48.266;14.192;2023-02-23T08:09:11;15.10;;;8.00;;
75456;SDS011;64036;48.266;14.192;2023-02-23T08:11:37;13.10;;;7.00;;
75456;SDS011;64036;48.266;14.192;2023-02-23T08:14:06;15.40;;;8.60;;
75456;SDS011;64036;48.266;14.192;2023-02-23T08:16:34;14.20;;;8.00;;
75456;SDS011;64036;48.266;14.192;2023-02-23T08:19:00;13.40;;;8.80;;
75456;SDS011;64036;48.266;14.192;2023-02-23T08:21:27;16.80;;;10.00;;
75456;SDS011;64036;48.266;14.192;2023-02-23T08:23:54;15.80;;;9.40;;
75456;SDS011;64036;48.266;14.192;2023-02-23T08:26:20;11.80;;;7.30;;
75456;SDS011;64036;48.266;14.192;2023-02-23T08:28:48;15.90;;;10.00;;
75456;SDS011;64036;48.266;14.192;2023-02-23T08:31:14;13.20;;;8.10;;
75456;SDS011;64036;48.266;14.192;2023-02-23T08:33:45;15.20;;;8.40;;
75456;SDS011;64036;48.266;14.192;2023-02-23T08:36:11;12.60;;;7.80;;
75456;SDS011;64036;48.266;14.192;2023-02-23T08:38:36;14.20;;;9.20;;
75456;SDS011;64036;48.266;14.192;2023-02-23T08:41:03;16.70;;;9.10;;
75456;SDS011;64036;48.266;14.192;2023-02-23T08:43:30;13.90;;;8.70;;
75456;SDS011;64036;48.266;14.192;2023-02-23T08:45:57;12.50;;;7.90;;
75456;SDS011;64036;48.266;14.192;2023-02-23T08:48:25;15.40;;;9.50;;
75456;SDS011;64036;48.266;14.192;2023-02-23T08:50:55;15.00;;;10.10;;
75456;SDS011;64036;48.266;14.192;2023-02-23T08:53:22;12.70;;;8.90;;
75456;SDS011;64036;48.266;14.192;2023-02-23T08:55:57;13.00;;;8.50;;
75456;SDS011;64036;48.266;14.192;2023-02-23T08:58:23;14.90;;;8.90;;
75456;SDS011;64036;48.266;14.192;2023-02-23T09:00:49;11.50;;;7.50;;
75456;SDS011;64036;48.266;14.192;2023-02-23T09:03:14;12.40;;;7.80;;
75456;SDS011;64036;48.266;14.192;2023-02-23T09:05:40;16.40;;;10.60;;
75456;SDS011;64036;48.266;14.192;2023-02-23T09:08:07;13.70;;;9.00;;
75456;SDS011;64036;48.266;14.192;2023-02-23T09:10:33;16.50;;;9.80;;
75456;SDS011;64036;48.266;14.192;2023-02-23T09:12:58;14.00;;;9.30;;
75456;SDS011;64036;48.266;14.192;2023-02-23T09:15:24;15.90;;;8.70;;
75456;SDS011;64036;48.266;14.192;2023-02-23T09:18:02;15.20;;;9.30;;
75456;SDS011;64036;48.266;14.192;2023-02-23T09:20:27;15.00;;;8.50;;
75456;SDS011;64036;48.266;14.192;2023-02-23T09:22:53;15.40;;;9.90;;
75456;SDS011;64036;48.266;14.192;2023-02-23T09:25:20;15.70;;;9.50;;
75456;SDS011;64036;48.266;14.192;2023-02-23T09:27:51;13.80;;;8.80;;
75456;SDS011;64036;48.266;14.192;2023-02-23T09:30:19;17.70;;;10.70;;
75456;SDS011;64036;48.266;14.192;2023-02-23T09:32:49;16.80;;;11.30;;
75456;SDS011;64036;48.266;14.192;2023-02-23T09:35:16;14.70;;;10.00;;
75456;SDS011;64036;48.266;14.192;2023-02-23T09:37:45;14.40;;;9.40;;
75456;SDS011;64036;48.266;14.192;2023-02-23T09:40:22;16.00;;;10.50;;
75456;SDS011;64036;48.266;14.192;2023-02-23T09:43:03;13.40;;;8.90;;
75456;SDS011;64036;48.266;14.192;2023-02-23T09:48:13;19.70;;;10.90;;
75456;SDS011;64036;48.266;14.192;2023-02-23T09:50:53;15.60;;;9.60;;
75456;SDS011;64036;48.266;14.192;2023-02-23T09:55:55;14.20;;;9.20;;
75456;SDS011;64036;48.266;14.192;2023-02-23T09:58:30;15.30;;;10.10;;
75456;SDS011;64036;48.266;14.192;2023-02-23T10:04:23;14.80;;;10.00;;
75456;SDS011;64036;48.266;14.192;2023-02-23T10:09:43;16.10;;;11.10;;
75456;SDS011;64036;48.266;14.192;2023-02-23T10:12:25;15.50;;;9.90;;
75456;SDS011;64036;48.266;14.192;2023-02-23T10:18:02;16.70;;;11.10;;
75456;SDS011;64036;48.266;14.192;2023-02-23T10:20:41;16.30;;;9.60;;
75456;SDS011;64036;48.266;14.192;2023-02-23T10:23:29;16.60;;;11.10;;
75456;SDS011;64036;48.266;14.192;2023-02-23T10:25:59;17.10;;;10.70;;
75456;SDS011;64036;48.266;14.192;2023-02-23T10:28:27;17.00;;;10.70;;
75456;SDS011;64036;48.266;14.192;2023-02-23T10:30:58;18.20;;;9.90;;
75456;SDS011;64036;48.266;14.192;2023-02-23T10:33:33;17.80;;;10.60;;
75456;SDS011;64036;48.266;14.192;2023-02-23T10:36:12;18.40;;;11.40;;
75456;SDS011;64036;48.266;14.192;2023-02-23T10:38:41;14.90;;;9.60;;
75456;SDS011;64036;48.266;14.192;2023-02-23T10:41:08;14.30;;;9.60;;
75456;SDS011;64036;48.266;14.192;2023-02-23T10:43:34;16.20;;;10.20;;
75456;SDS011;64036;48.266;14.192;2023-02-23T10:46:00;18.20;;;10.10;;
75456;SDS011;64036;48.266;14.192;2023-02-23T10:48:32;15.60;;;11.20;;
75456;SDS011;64036;48.266;14.192;2023-02-23T10:51:03;16.50;;;10.40;;
75456;SDS011;64036;48.266;14.192;2023-02-23T10:53:34;18.30;;;11.50;;
75456;SDS011;64036;48.266;14.192;2023-02-23T10:56:10;16.90;;;10.40;;
75456;SDS011;64036;48.266;14.192;2023-02-23T11:01:08;18.00;;;11.10;;
75456;SDS011;64036;48.266;14.192;2023-02-23T11:03:46;19.00;;;11.50;;
75456;SDS011;64036;48.266;14.192;2023-02-23T11:06:29;14.70;;;9.60;;
75456;SDS011;64036;48.266;14.192;2023-02-23T11:09:28;14.80;;;10.60;;
75456;SDS011;64036;48.266;14.192;2023-02-23T11:11:56;14.70;;;9.90;;
75456;SDS011;64036;48.266;14.192;2023-02-23T11:14:26;17.30;;;10.80;;
75456;SDS011;64036;48.266;14.192;2023-02-23T11:16:58;14.30;;;8.60;;
75456;SDS011;64036;48.266;14.192;2023-02-23T11:19:42;18.50;;;11.90;;
75456;SDS011;64036;48.266;14.192;2023-02-23T11:22:18;14.20;;;10.20;;
75456;SDS011;64036;48.266;14.192;2023-02-23T11:24:48;16.90;;;11.30;;
75456;SDS011;64036;48.266;14.192;2023-02-23T11:27:23;14.90;;;10.30;;
75456;SDS011;64036;48.266;14.192;2023-02-23T11:29:54;13.50;;;10.00;;
75456;SDS011;64036;48.266;14.192;2023-02-23T11:32:28;17.70;;;12.10;;
75456;SDS011;64036;48.266;14.192;2023-02-23T11:35:33;15.60;;;10.30;;
75456;SDS011;64036;48.266;14.192;2023-02-23T11:37:58;16.50;;;11.30;;
75456;SDS011;64036;48.266;14.192;2023-02-23T11:40:30;19.80;;;12.40;;
75456;SDS011;64036;48.266;14.192;2023-02-23T11:43:07;15.60;;;10.70;;
75456;SDS011;64036;48.266;14.192;2023-02-23T11:45:47;17.20;;;12.10;;
75456;SDS011;64036;48.266;14.192;2023-02-23T11:48:48;18.00;;;12.30;;
75456;SDS011;64036;48.266;14.192;2023-02-23T11:51:46;19.00;;;11.70;;
75456;SDS011;64036;48.266;14.192;2023-02-23T11:54:30;16.80;;;11.50;;
75456;SDS011;64036;48.266;14.192;2023-02-23T11:56:57;16.80;;;11.40;;
75456;SDS011;64036;48.266;14.192;2023-02-23T11:59:39;16.50;;;11.00;;
75456;SDS011;64036;48.266;14.192;2023-02-23T12:02:23;12.90;;;8.80;;
75456;SDS011;64036;48.266;14.192;2023-02-23T12:05:05;16.60;;;10.60;;
75456;SDS011;64036;48.266;14.192;2023-02-23T12:10:23;17.40;;;10.20;;
75456;SDS011;64036;48.266;14.192;2023-02-23T12:13:58;16.70;;;11.80;;
75456;SDS011;64036;48.266;14.192;2023-02-23T12:16:15;16.90;;;11.30;;
75456;SDS011;64036;48.266;14.192;2023-02-23T12:22:01;16.30;;;10.70;;
75456;SDS011;64036;48.266;14.192;2023-02-23T12:30:27;14.80;;;10.50;;
75456;SDS011;64036;48.266;14.192;2023-02-23T12:33:11;17.90;;;10.80;;
75456;SDS011;64036;48.266;14.192;2023-02-23T12:35:57;18.50;;;11.50;;
75456;SDS011;64036;48.266;14.192;2023-02-23T12:41:11;15.60;;;9.70;;
75456;SDS011;64036;48.266;14.192;2023-02-23T12:43:47;17.80;;;11.60;;
75456;SDS011;64036;48.266;14.192;2023-02-23T12:46:26;15.80;;;10.90;;
75456;SDS011;64036;48.266;14.192;2023-02-23T12:49:29;16.60;;;10.70;;
75456;SDS011;64036;48.266;14.192;2023-02-23T12:54:33;17.60;;;12.10;;
75456;SDS011;64036;48.266;14.192;2023-02-23T13:03:11;14.80;;;9.20;;
75456;SDS011;64036;48.266;14.192;2023-02-23T13:06:03;19.30;;;10.70;;
75456;SDS011;64036;48.266;14.192;2023-02-23T13:09:21;16.30;;;11.60;;
75456;SDS011;64036;48.266;14.192;2023-02-23T13:11:52;17.60;;;11.20;;
75456;SDS011;64036;48.266;14.192;2023-02-23T13:14:44;13.40;;;9.00;;
75456;SDS011;64036;48.266;14.192;2023-02-23T13:17:32;16.30;;;10.50;;
75456;SDS011;64036;48.266;14.192;2023-02-23T13:22:50;18.30;;;11.80;;
75456;SDS011;64036;48.266;14.192;2023-02-23T13:25:55;18.20;;;11.40;;
75456;SDS011;64036;48.266;14.192;2023-02-23T13:29:08;17.30;;;11.40;;
75456;SDS011;64036;48.266;14.192;2023-02-23T13:31:40;16.30;;;10.80;;
75456;SDS011;64036;48.266;14.192;2023-02-23T13:34:15;18.70;;;11.50;;
75456;SDS011;64036;48.266;14.192;2023-02-23T13:36:48;17.80;;;11.60;;
75456;SDS011;64036;48.266;14.192;2023-02-23T13:45:24;18.50;;;10.90;;
75456;SDS011;64036;48.266;14.192;2023-02-23T13:48:23;16.30;;;10.40;;
75456;SDS011;64036;48.266;14.192;2023-02-23T13:54:31;22.20;;;13.60;;
75456;SDS011;64036;48.266;14.192;2023-02-23T13:57:00;19.70;;;12.00;;
75456;SDS011;64036;48.266;14.192;2023-02-23T13:59:43;19.20;;;13.10;;
75456;SDS011;64036;48.266;14.192;2023-02-23T14:02:31;18.70;;;11.70;;
75456;SDS011;64036;48.266;14.192;2023-02-23T14:05:17;20.20;;;13.50;;
75456;SDS011;64036;48.266;14.192;2023-02-23T14:07:47;19.60;;;12.50;;
75456;SDS011;64036;48.266;14.192;2023-02-23T14:10:22;21.10;;;12.80;;
75456;SDS011;64036;48.266;14.192;2023-02-23T14:18:04;21.50;;;13.10;;
75456;SDS011;64036;48.266;14.192;2023-02-23T14:24:13;18.10;;;11.10;;
75456;SDS011;64036;48.266;14.192;2023-02-23T14:26:44;20.20;;;12.10;;
75456;SDS011;64036;48.266;14.192;2023-02-23T14:29:41;19.70;;;11.90;;
75456;SDS011;64036;48.266;14.192;2023-02-23T14:34:55;22.00;;;13.10;;
75456;SDS011;64036;48.266;14.192;2023-02-23T14:43:00;20.70;;;12.30;;
75456;SDS011;64036;48.266;14.192;2023-02-23T14:45:36;18.80;;;12.10;;
75456;SDS011;64036;48.266;14.192;2023-02-23T14:48:21;15.90;;;10.70;;
75456;SDS011;64036;48.266;14.192;2023-02-23T14:50:48;14.70;;;8.30;;
75456;SDS011;64036;48.266;14.192;2023-02-23T14:53:21;18.20;;;11.30;;
75456;SDS011;64036;48.266;14.192;2023-02-23T14:55:51;21.40;;;13.10;;
75456;SDS011;64036;48.266;14.192;2023-02-23T14:58:25;15.40;;;10.10;;
75456;SDS011;64036;48.266;14.192;2023-02-23T15:00:53;17.70;;;10.50;;
75456;SDS011;64036;48.266;14.192;2023-02-23T15:03:19;18.40;;;12.00;;
75456;SDS011;64036;48.266;14.192;2023-02-23T15:05:58;19.60;;;13.10;;
75456;SDS011;64036;48.266;14.192;2023-02-23T15:08:27;21.20;;;13.00;;
75456;SDS011;64036;48.266;14.192;2023-02-23T15:11:09;21.00;;;12.80;;
75456;SDS011;64036;48.266;14.192;2023-02-23T15:13:39;22.70;;;13.20;;
75456;SDS011;64036;48.266;14.192;2023-02-23T15:16:11;21.30;;;13.70;;
75456;SDS011;64036;48.266;14.192;2023-02-23T15:18:41;22.10;;;13.40;;
75456;SDS011;64036;48.266;14.192;2023-02-23T15:21:19;19.40;;;12.90;;
75456;SDS011;64036;48.266;14.192;2023-02-23T15:23:51;20.40;;;13.00;;
75456;SDS011;64036;48.266;14.192;2023-02-23T15:26:33;20.90;;;13.50;;
75456;SDS011;64036;48.266;14.192;2023-02-23T15:31:35;21.40;;;12.70;;
75456;SDS011;64036;48.266;14.192;2023-02-23T15:34:09;20.30;;;12.80;;
75456;SDS011;64036;48.266;14.192;2023-02-23T15:36:36;20.60;;;12.40;;
75456;SDS011;64036;48.266;14.192;2023-02-23T15:39:06;20.70;;;13.00;;
75456;SDS011;64036;48.266;14.192;2023-02-23T15:41:37;18.50;;;12.90;;
75456;SDS011;64036;48.266;14.192;2023-02-23T15:44:24;22.80;;;13.50;;
75456;SDS011;64036;48.266;14.192;2023-02-23T15:46:59;23.60;;;14.00;;
75456;SDS011;64036;48.266;14.192;2023-02-23T15:49:32;23.80;;;13.90;;
75456;SDS011;64036;48.266;14.192;2023-02-23T15:52:07;21.90;;;13.70;;
75456;SDS011;64036;48.266;14.192;2023-02-23T15:57:29;22.20;;;12.50;;
75456;SDS011;64036;48.266;14.192;2023-02-23T16:00:16;21.30;;;13.70;;
75456;SDS011;64036;48.266;14.192;2023-02-23T16:02:58;23.70;;;13.40;;
75456;SDS011;64036;48.266;14.192;2023-02-23T16:05:28;21.70;;;14.00;;
75456;SDS011;64036;48.266;14.192;2023-02-23T16:08:19;22.50;;;13.50;;
75456;SDS011;64036;48.266;14.192;2023-02-23T16:10:48;19.50;;;13.10;;
75456;SDS011;64036;48.266;14.192;2023-02-23T16:13:19;20.90;;;12.80;;
75456;SDS011;64036;48.266;14.192;2023-02-23T16:15:47;20.50;;;12.50;;
75456;SDS011;64036;48.266;14.192;2023-02-23T16:18:32;17.90;;;11.00;;
75456;SDS011;64036;48.266;14.192;2023-02-23T16:21:05;19.00;;;11.80;;
75456;SDS011;64036;48.266;14.192;2023-02-23T16:23:42;21.50;;;12.80;;
75456;SDS011;64036;48.266;14.192;2023-02-23T16:26:19;22.60;;;14.40;;
75456;SDS011;64036;48.266;14.192;2023-02-23T16:28:55;24.30;;;14.70;;
75456;SDS011;64036;48.266;14.192;2023-02-23T16:31:38;19.50;;;12.30;;
75456;SDS011;64036;48.266;14.192;2023-02-23T16:34:58;22.80;;;13.30;;
75456;SDS011;64036;48.266;14.192;2023-02-23T16:37:26;20.70;;;13.50;;
75456;SDS011;64036;48.266;14.192;2023-02-23T16:40:00;22.50;;;12.90;;
75456;SDS011;64036;48.266;14.192;2023-02-23T16:42:33;21.00;;;13.30;;
75456;SDS011;64036;48.266;14.192;2023-02-23T16:45:00;20.10;;;13.40;;
75456;SDS011;64036;48.266;14.192;2023-02-23T16:47:33;21.40;;;13.00;;
75456;SDS011;64036;48.266;14.192;2023-02-23T16:50:20;18.30;;;12.40;;
75456;SDS011;64036;48.266;14.192;2023-02-23T16:52:50;23.40;;;13.30;;
75456;SDS011;64036;48.266;14.192;2023-02-23T16:55:25;22.00;;;12.10;;
75456;SDS011;64036;48.266;14.192;2023-02-23T16:58:10;20.00;;;11.70;;
75456;SDS011;64036;48.266;14.192;2023-02-23T17:00:41;25.90;;;13.30;;
75456;SDS011;64036;48.266;14.192;2023-02-23T17:03:25;23.60;;;13.80;;
75456;SDS011;64036;48.266;14.192;2023-02-23T17:05:53;19.60;;;12.90;;
75456;SDS011;64036;48.266;14.192;2023-02-23T17:08:22;21.30;;;13.20;;
75456;SDS011;64036;48.266;14.192;2023-02-23T17:10:53;23.90;;;14.00;;
75456;SDS011;64036;48.266;14.192;2023-02-23T17:13:23;22.80;;;13.50;;
75456;SDS011;64036;48.266;14.192;2023-02-23T17:15:52;19.40;;;12.50;;
75456;SDS011;64036;48.266;14.192;2023-02-23T17:18:22;21.90;;;13.20;;
75456;SDS011;64036;48.266;14.192;2023-02-23T17:20:55;20.40;;;12.70;;
75456;SDS011;64036;48.266;14.192;2023-02-23T17:23:23;15.70;;;9.50;;